EDQK weather

Kulmbach Airport
Kulmbach, Bavaria, Germany

Public forecast

Using degrees Celsius for public forecast. Weather courtesy of forecast.io.

METAR (pilot weather report)

Report is more than 2 hours old.

Closest report is Hof-Plauen Airport, 17.8 nm (33.0 km) ENE. Retrieved 2019/06/15 16:50 UTC (6 hours ago):

EDQM 151650Z 26010KT 230V290 9999 FEW045 22/12 Q1015

TAF (pilot weather forecast)

Closest forecast is Grafenwohr Army Air Field, 32.1 nm (59.5 km) SE. Retrieved 2019/06/15 22:08 UTC (13 minutes ago):

TAF ETIC 152202Z 1522/1704 32006KT 8000 -SHRA BKN030 QNH2998INS TEMPO 1523/1601 33015KT 8000 -TSRA BKN020CB BECMG 1608/1609 02009KT 9999 NSW BKN030 QNH3013INS TX25/1614Z TN15/1604Z